Time;durP1;ratioP1;P1;durP2;ratioP2;P2;SDS_P1;SDS_P2;PMS_P1;PMS_P2;Temp;Humidity;BMP_temperature;BMP_pressure;BME280_temperature;BME280_humidity;BME280_pressure;Samples;Min_cycle;Max_cycle;Signal;HPM_P1;HPM_P2
2021/12/29 00:01:06;;;;;;;2.83;2.63;;;9.60;99.90;;;;;;5077727;28;20242;-64
2021/12/29 00:03:35;;;;;;;3.20;2.80;;;9.70;99.90;;;;;;5077500;28;20215;-63
2021/12/29 00:06:04;;;;;;;3.03;2.80;;;9.70;99.90;;;;;;5073348;28;20195;-64
2021/12/29 00:08:33;;;;;;;4.87;3.03;;;9.70;99.90;;;;;;5071617;28;20402;-63
2021/12/29 00:11:02;;;;;;;3.20;2.90;;;9.60;99.90;;;;;;5072806;28;20195;-64
2021/12/29 00:13:31;;;;;;;3.13;2.70;;;9.70;99.90;;;;;;5074326;28;20282;-63
2021/12/29 00:16:00;;;;;;;3.70;2.60;;;9.70;99.90;;;;;;5077572;28;20247;-63
2021/12/29 00:18:31;;;;;;;4.33;2.73;;;9.70;99.90;;;;;;5073030;28;20188;-64
2021/12/29 00:21:01;;;;;;;5.70;3.13;;;9.70;99.90;;;;;;5075639;28;20223;-64
2021/12/29 00:23:29;;;;;;;3.20;2.90;;;9.70;99.90;;;;;;5076551;28;20587;-63
2021/12/29 00:26:19;;;;;;;7.83;2.67;;;9.70;99.90;;;;;;5081645;28;20218;-64
2021/12/29 00:28:47;;;;;;;4.77;3.00;;;9.60;99.90;;;;;;5081692;28;20199;-64
2021/12/29 00:31:16;;;;;;;4.63;3.47;;;9.70;99.90;;;;;;5082073;28;20252;-64
2021/12/29 00:33:44;;;;;;;5.30;2.83;;;9.60;99.90;;;;;;5079677;28;20439;-63
2021/12/29 00:36:13;;;;;;;3.27;2.93;;;9.60;99.90;;;;;;5080606;28;20188;-64
2021/12/29 00:38:42;;;;;;;4.30;3.10;;;9.70;99.90;;;;;;5083957;28;20597;-63
2021/12/29 00:41:10;;;;;;;5.03;3.10;;;9.70;99.90;;;;;;5076292;28;20682;-63
2021/12/29 00:43:40;;;;;;;3.13;2.93;;;9.60;99.90;;;;;;5087683;28;20686;-64
2021/12/29 00:46:11;;;;;;;6.77;3.40;;;9.70;99.90;;;;;;5080518;28;20195;-64
2021/12/29 00:48:43;;;;;;;4.37;3.40;;;9.60;99.90;;;;;;5080717;28;20267;-64
2021/12/29 00:51:12;;;;;;;4.27;3.37;;;9.60;99.90;;;;;;5079912;28;20190;-64
2021/12/29 00:53:40;;;;;;;4.50;3.20;;;9.60;99.90;;;;;;5084467;28;20208;-64
2021/12/29 00:56:10;;;;;;;4.30;3.40;;;9.60;99.90;;;;;;5084946;28;20679;-64
2021/12/29 00:58:40;;;;;;;4.37;3.30;;;9.60;99.90;;;;;;5082509;28;20198;-64
2021/12/29 01:01:08;;;;;;;3.67;3.37;;;9.60;99.90;;;;;;5082669;28;20279;-64
2021/12/29 01:03:38;;;;;;;3.40;3.13;;;9.60;99.90;;;;;;5089009;28;20211;-64
2021/12/29 01:06:07;;;;;;;4.83;3.27;;;9.70;99.90;;;;;;5083207;28;20561;-64
2021/12/29 01:08:36;;;;;;;3.30;2.97;;;9.60;99.90;;;;;;5078544;28;20195;-64
2021/12/29 01:11:05;;;;;;;3.63;3.43;;;9.60;99.90;;;;;;5083326;28;20599;-63
2021/12/29 01:13:41;;;;;;;5.27;3.10;;;9.70;99.90;;;;;;5079484;28;20219;-64
2021/12/29 01:16:36;;;;;;;3.63;3.40;;;9.60;99.90;;;;;;5082908;28;20645;-63
2021/12/29 01:19:08;;;;;;;3.50;3.03;;;9.60;99.90;;;;;;5068615;28;20604;-64
2021/12/29 01:21:38;;;;;;;4.13;3.30;;;9.70;99.90;;;;;;5081983;28;20609;-63
2021/12/29 01:24:07;;;;;;;4.03;3.30;;;9.70;99.90;;;;;;5085171;28;20196;-63
2021/12/29 01:26:36;;;;;;;5.23;3.57;;;9.60;99.90;;;;;;5086633;28;20282;-63
2021/12/29 01:29:05;;;;;;;3.30;3.10;;;9.70;99.90;;;;;;5088707;28;20195;-64
2021/12/29 01:31:36;;;;;;;4.37;3.30;;;9.60;99.90;;;;;;5078389;28;20630;-64
2021/12/29 01:34:05;;;;;;;3.63;3.20;;;9.60;99.90;;;;;;5080921;28;20596;-63
2021/12/29 01:36:36;;;;;;;3.83;3.30;;;9.60;99.90;;;;;;5081551;28;20344;-63
2021/12/29 01:39:10;;;;;;;10.57;3.37;;;9.60;99.90;;;;;;5079265;28;20191;-63
2021/12/29 01:41:39;;;;;;;6.57;3.50;;;9.60;99.90;;;;;;5076446;28;20388;-63
2021/12/29 01:44:09;;;;;;;5.30;3.70;;;9.60;99.90;;;;;;5080132;28;20203;-63
2021/12/29 01:46:40;;;;;;;6.83;4.23;;;9.60;99.90;;;;;;5072696;28;20230;-64
2021/12/29 01:49:09;;;;;;;6.97;4.33;;;9.60;99.90;;;;;;5079529;28;20192;-63
2021/12/29 01:51:47;;;;;;;8.80;4.23;;;9.60;99.90;;;;;;5076922;28;20204;-63
2021/12/29 01:54:23;;;;;;;8.40;4.20;;;9.60;99.90;;;;;;5078487;28;20650;-63
2021/12/29 01:56:54;;;;;;;8.27;4.50;;;9.60;99.90;;;;;;5072411;28;20206;-63
2021/12/29 01:59:28;;;;;;;4.27;3.87;;;9.60;99.90;;;;;;5076385;28;20254;-63
2021/12/29 02:01:58;;;;;;;7.17;4.07;;;9.60;99.90;;;;;;5081765;28;20285;-64
2021/12/29 02:04:27;;;;;;;5.07;3.73;;;9.60;99.90;;;;;;5079455;28;20742;-64
2021/12/29 02:06:55;;;;;;;8.57;4.13;;;9.60;99.90;;;;;;5078579;28;20500;-63
2021/12/29 02:09:23;;;;;;;6.53;4.03;;;9.60;99.90;;;;;;5077208;28;20208;-63
2021/12/29 02:11:52;;;;;;;4.93;3.80;;;9.60;99.90;;;;;;5075253;28;20191;-64
2021/12/29 02:14:21;;;;;;;15.97;4.57;;;9.60;99.90;;;;;;5070917;28;20226;-63
2021/12/29 02:16:49;;;;;;;4.73;3.83;;;9.60;99.90;;;;;;5078367;28;20207;-64
2021/12/29 02:19:20;;;;;;;5.23;3.90;;;9.60;99.90;;;;;;5077084;28;20552;-63
2021/12/29 02:21:57;;;;;;;7.07;4.20;;;9.60;99.90;;;;;;5072312;28;20267;-64
2021/12/29 02:24:36;;;;;;;6.73;3.97;;;9.60;99.90;;;;;;5082220;28;20248;-64
2021/12/29 02:27:06;;;;;;;5.47;3.70;;;9.70;99.90;;;;;;5079433;28;20219;-63
2021/12/29 02:29:35;;;;;;;6.47;4.47;;;9.70;99.90;;;;;;5078001;28;20192;-63
2021/12/29 02:32:04;;;;;;;6.37;3.77;;;9.60;99.90;;;;;;5079601;28;20203;-64
2021/12/29 02:34:33;;;;;;;6.00;3.70;;;9.60;99.90;;;;;;5074046;28;20658;-64
2021/12/29 02:37:04;;;;;;;6.93;4.00;;;9.50;99.90;;;;;;5075116;28;20713;-63
2021/12/29 02:39:36;;;;;;;7.63;4.10;;;9.60;99.90;;;;;;5070214;28;20219;-63
2021/12/29 02:42:07;;;;;;;8.63;4.00;;;9.60;99.90;;;;;;5076572;28;20214;-64
2021/12/29 02:44:40;;;;;;;4.20;3.63;;;9.60;99.90;;;;;;5079007;28;20559;-64
2021/12/29 02:47:10;;;;;;;7.50;3.73;;;9.60;99.90;;;;;;5080266;28;20565;-63
2021/12/29 02:49:39;;;;;;;5.67;3.97;;;9.60;99.90;;;;;;5080001;28;20204;-63
2021/12/29 02:52:11;;;;;;;9.33;4.00;;;9.60;99.90;;;;;;5076642;28;20671;-63
2021/12/29 02:54:40;;;;;;;5.03;4.10;;;9.60;99.90;;;;;;5071691;28;20196;-63
2021/12/29 02:57:08;;;;;;;4.60;3.83;;;9.60;99.90;;;;;;5076411;28;20234;-64
2021/12/29 02:59:37;;;;;;;4.60;4.07;;;9.60;99.90;;;;;;5081716;28;20286;-64
2021/12/29 03:02:06;;;;;;;4.93;3.93;;;9.60;99.90;;;;;;5079998;28;20191;-63
2021/12/29 03:04:34;;;;;;;4.60;3.93;;;9.50;99.90;;;;;;5072305;28;20187;-63
2021/12/29 03:07:03;;;;;;;4.23;3.83;;;9.50;99.90;;;;;;5071998;28;20686;-63
2021/12/29 03:09:35;;;;;;;5.87;4.23;;;9.50;99.90;;;;;;5079300;28;20191;-63
2021/12/29 03:12:04;;;;;;;7.30;4.23;;;9.50;99.90;;;;;;5074294;28;20407;-64
2021/12/29 03:14:33;;;;;;;4.90;4.50;;;9.50;99.90;;;;;;5078155;28;20238;-64
2021/12/29 03:17:01;;;;;;;4.47;3.93;;;9.50;99.90;;;;;;5078708;28;20215;-64
2021/12/29 03:19:30;;;;;;;4.70;3.80;;;9.50;99.90;;;;;;5081799;28;20669;-64
2021/12/29 03:21:58;;;;;;;4.70;4.30;;;9.50;99.90;;;;;;5081050;28;20283;-64
2021/12/29 03:24:27;;;;;;;4.40;3.97;;;9.50;99.90;;;;;;5076268;28;20476;-63
2021/12/29 03:26:56;;;;;;;4.47;4.13;;;9.50;99.90;;;;;;5068778;28;20200;-63
2021/12/29 03:29:25;;;;;;;4.83;4.17;;;9.50;99.90;;;;;;5081026;28;20280;-63
2021/12/29 03:31:53;;;;;;;7.17;4.60;;;9.50;99.90;;;;;;5084747;28;20247;-63
2021/12/29 03:34:21;;;;;;;5.80;4.00;;;9.50;99.90;;;;;;5082338;28;20298;-63
2021/12/29 03:36:50;;;;;;;6.57;4.30;;;9.50;99.90;;;;;;5081886;28;20253;-63
2021/12/29 03:39:19;;;;;;;5.03;4.53;;;9.50;99.90;;;;;;5073509;28;20254;-64
2021/12/29 03:41:48;;;;;;;4.90;4.50;;;9.50;99.90;;;;;;5078552;28;20195;-64
2021/12/29 03:44:17;;;;;;;5.70;4.50;;;9.50;99.90;;;;;;5071836;28;20319;-63
2021/12/29 03:46:46;;;;;;;9.90;4.73;;;9.50;99.90;;;;;;5074629;28;20223;-64
2021/12/29 03:49:14;;;;;;;7.20;4.17;;;9.50;99.90;;;;;;5076243;28;20200;-63
2021/12/29 03:51:43;;;;;;;5.43;4.13;;;9.50;99.90;;;;;;5076085;28;20192;-64
2021/12/29 03:54:12;;;;;;;5.43;4.43;;;9.40;99.90;;;;;;5069539;28;20222;-64
2021/12/29 03:56:40;;;;;;;4.70;4.30;;;9.40;99.90;;;;;;5077285;28;20212;-64
2021/12/29 03:59:09;;;;;;;6.87;4.47;;;9.40;99.90;;;;;;5083684;28;20191;-63
2021/12/29 04:01:39;;;;;;;6.27;4.67;;;9.30;99.90;;;;;;5074001;28;20198;-63
2021/12/29 04:04:07;;;;;;;4.80;4.40;;;9.40;99.90;;;;;;5078185;28;20215;-63
2021/12/29 04:06:36;;;;;;;11.33;4.70;;;9.30;99.90;;;;;;5070181;28;20196;-64
2021/12/29 04:09:05;;;;;;;4.53;4.17;;;9.30;99.90;;;;;;5080160;28;20230;-63
2021/12/29 04:11:33;;;;;;;8.27;4.43;;;9.40;99.90;;;;;;5080509;28;20245;-64
2021/12/29 04:14:02;;;;;;;4.90;4.37;;;9.40;99.90;;;;;;5077023;28;20219;-63
2021/12/29 04:16:30;;;;;;;5.30;4.80;;;9.40;99.90;;;;;;5075593;28;20199;-63
2021/12/29 04:19:17;;;;;;;4.50;4.10;;;9.40;99.90;;;;;;5075649;28;20192;-63
2021/12/29 04:21:48;;;;;;;6.10;4.03;;;9.40;99.90;;;;;;5052250;28;20558;-63
2021/12/29 04:24:17;;;;;;;4.30;3.90;;;9.40;99.90;;;;;;5077960;28;20273;-63
2021/12/29 04:26:45;;;;;;;4.60;4.20;;;9.40;99.90;;;;;;5080903;28;20555;-64
2021/12/29 04:29:14;;;;;;;6.70;4.33;;;9.40;99.90;;;;;;5091658;28;20188;-63
2021/12/29 04:31:44;;;;;;;5.10;4.57;;;9.40;99.90;;;;;;5073535;28;20192;-64
2021/12/29 04:34:13;;;;;;;4.57;3.93;;;9.40;99.90;;;;;;5075565;28;20211;-63
2021/12/29 04:36:42;;;;;;;5.97;4.20;;;9.40;99.90;;;;;;5082927;28;20494;-64
2021/12/29 04:39:10;;;;;;;6.00;4.03;;;9.40;99.90;;;;;;5075130;28;20248;-63
2021/12/29 04:41:39;;;;;;;9.03;4.00;;;9.40;99.90;;;;;;5070185;28;20202;-63
2021/12/29 04:44:07;;;;;;;3.83;3.47;;;9.40;99.90;;;;;;5073705;28;20228;-63
2021/12/29 04:46:40;;;;;;;4.87;3.40;;;9.40;99.90;;;;;;5077472;28;20196;-64
2021/12/29 04:49:12;;;;;;;3.97;3.23;;;9.40;99.90;;;;;;5077384;28;20210;-64
2021/12/29 04:51:51;;;;;;;5.43;3.10;;;9.40;99.90;;;;;;5070604;28;20207;-63
2021/12/29 04:54:20;;;;;;;3.27;3.00;;;9.40;99.90;;;;;;5077508;28;20784;-64
2021/12/29 04:56:48;;;;;;;7.53;3.00;;;9.30;99.90;;;;;;5075216;28;20191;-64
2021/12/29 04:59:16;;;;;;;3.30;3.00;;;9.30;99.90;;;;;;5078538;28;20212;-63
2021/12/29 05:01:47;;;;;;;4.23;3.20;;;9.40;99.90;;;;;;5076427;28;20199;-64
2021/12/29 05:04:20;;;;;;;4.20;3.00;;;9.30;99.90;;;;;;5079165;28;20334;-64
2021/12/29 05:09:36;;;;;;;6.20;2.77;;;9.20;99.90;;;;;;5082014;28;20196;-63
2021/12/29 05:12:06;;;;;;;6.00;3.17;;;9.20;99.90;;;;;;5093542;28;20233;-64
2021/12/29 05:14:34;;;;;;;8.10;3.17;;;9.20;99.90;;;;;;5075451;28;20215;-64
2021/12/29 05:17:05;;;;;;;5.87;3.10;;;9.10;99.90;;;;;;5081910;28;20303;-64
2021/12/29 05:19:34;;;;;;;6.07;3.03;;;9.10;99.90;;;;;;5077325;28;20196;-64
2021/12/29 05:22:04;;;;;;;3.83;3.17;;;9.00;99.90;;;;;;5071484;28;20727;-64
2021/12/29 05:24:33;;;;;;;4.60;3.10;;;9.00;99.90;;;;;;5082021;28;20238;-63
2021/12/29 05:27:02;;;;;;;7.33;3.40;;;8.90;99.90;;;;;;5079050;28;20206;-64
2021/12/29 05:29:30;;;;;;;6.43;3.37;;;8.90;99.90;;;;;;5081394;28;20279;-64
2021/12/29 05:31:59;;;;;;;6.97;3.37;;;8.80;99.90;;;;;;5080303;28;20200;-64
2021/12/29 05:34:27;;;;;;;6.37;3.33;;;8.80;99.90;;;;;;5093748;28;20203;-63
2021/12/29 05:36:56;;;;;;;6.90;3.40;;;8.70;99.90;;;;;;5077963;28;20195;-63
2021/12/29 05:39:26;;;;;;;5.17;3.60;;;8.70;99.90;;;;;;5084457;28;20187;-63
2021/12/29 05:41:56;;;;;;;5.57;3.33;;;8.70;99.90;;;;;;5083931;28;20196;-63
2021/12/29 05:44:24;;;;;;;5.57;3.53;;;8.70;99.90;;;;;;5084190;28;20698;-63
2021/12/29 05:46:52;;;;;;;7.33;3.90;;;8.70;99.90;;;;;;5075139;28;20283;-63
2021/12/29 05:49:21;;;;;;;7.40;3.30;;;8.70;99.90;;;;;;5079476;28;20240;-63
2021/12/29 05:51:50;;;;;;;11.87;3.37;;;8.70;99.90;;;;;;5080635;28;20199;-63
2021/12/29 05:54:18;;;;;;;5.13;3.13;;;8.70;99.90;;;;;;5086647;28;20195;-64
2021/12/29 05:56:49;;;;;;;7.73;3.40;;;8.70;99.90;;;;;;5074559;28;20256;-63
2021/12/29 05:59:17;;;;;;;4.63;3.20;;;8.80;99.90;;;;;;5085757;28;20192;-63
2021/12/29 06:01:47;;;;;;;6.20;3.53;;;8.80;99.90;;;;;;5072819;28;20204;-63
2021/12/29 06:04:16;;;;;;;8.47;3.10;;;8.80;99.90;;;;;;5074130;28;20229;-63
2021/12/29 06:06:44;;;;;;;9.77;3.20;;;8.80;99.90;;;;;;5078113;28;20219;-63
2021/12/29 06:09:14;;;;;;;4.67;3.20;;;8.70;99.90;;;;;;5081922;28;20235;-63
2021/12/29 06:11:43;;;;;;;9.67;3.00;;;8.80;99.90;;;;;;5079924;28;20256;-63
2021/12/29 06:14:12;;;;;;;6.37;3.10;;;8.70;99.90;;;;;;5083620;28;20246;-64
2021/12/29 06:16:41;;;;;;;5.03;3.00;;;8.70;99.90;;;;;;5079657;28;20256;-63
2021/12/29 06:19:11;;;;;;;3.93;3.03;;;8.70;99.90;;;;;;5081815;28;20203;-63
2021/12/29 06:21:39;;;;;;;11.13;3.43;;;8.60;99.90;;;;;;5085029;28;20258;-64
2021/12/29 06:24:08;;;;;;;6.67;3.10;;;8.50;99.90;;;;;;5079971;28;20589;-63
2021/12/29 06:26:36;;;;;;;7.03;3.43;;;8.50;99.90;;;;;;5073454;28;20222;-63
2021/12/29 06:29:05;;;;;;;8.43;3.07;;;8.50;99.90;;;;;;5078166;28;20228;-63
2021/12/29 06:31:34;;;;;;;4.70;3.03;;;8.50;99.90;;;;;;5084459;28;20199;-63
2021/12/29 06:34:03;;;;;;;10.40;3.13;;;8.40;99.90;;;;;;5081079;28;20298;-63
2021/12/29 06:36:32;;;;;;;7.87;3.83;;;8.40;99.90;;;;;;5079412;28;20196;-63
2021/12/29 06:39:00;;;;;;;9.30;3.07;;;8.30;99.90;;;;;;5078593;28;20215;-63
2021/12/29 06:41:29;;;;;;;6.23;3.23;;;8.30;99.90;;;;;;5081862;28;20207;-63
2021/12/29 06:43:57;;;;;;;6.97;2.70;;;8.30;99.90;;;;;;5080339;28;20248;-63
2021/12/29 06:46:26;;;;;;;6.30;3.07;;;8.30;99.90;;;;;;5074659;28;20231;-63
2021/12/29 06:48:56;;;;;;;5.50;3.10;;;8.30;99.90;;;;;;5074853;28;20214;-63
2021/12/29 06:51:24;;;;;;;7.53;3.30;;;8.30;99.90;;;;;;5077382;28;20241;-63
2021/12/29 06:53:52;;;;;;;8.97;3.40;;;8.30;99.90;;;;;;5082530;28;20203;-63
2021/12/29 06:56:21;;;;;;;6.17;3.70;;;8.30;99.90;;;;;;5083624;28;20651;-63
2021/12/29 06:58:49;;;;;;;6.30;3.20;;;8.30;99.90;;;;;;5078847;28;20260;-63
2021/12/29 07:01:18;;;;;;;10.37;3.10;;;8.20;99.90;;;;;;5081761;28;20786;-63
2021/12/29 07:03:46;;;;;;;6.50;3.17;;;8.20;99.90;;;;;;5084010;28;20261;-63
2021/12/29 07:06:16;;;;;;;5.23;2.70;;;8.20;99.90;;;;;;5081735;28;20587;-63
2021/12/29 07:08:44;;;;;;;8.17;3.07;;;8.30;99.90;;;;;;5075789;28;20214;-63
2021/12/29 07:11:13;;;;;;;7.43;3.30;;;8.30;99.90;;;;;;5074106;28;20405;-63
2021/12/29 07:13:44;;;;;;;8.13;3.67;;;8.30;99.90;;;;;;5095144;28;20189;-63
2021/12/29 07:16:13;;;;;;;6.03;3.37;;;8.30;99.90;;;;;;5093749;28;20216;-63
2021/12/29 07:18:42;;;;;;;6.87;3.03;;;8.30;99.90;;;;;;5076217;28;20194;-63
2021/12/29 07:21:11;;;;;;;6.27;3.77;;;8.30;99.90;;;;;;5075756;28;20640;-63
2021/12/29 07:23:41;;;;;;;8.97;3.37;;;8.30;99.90;;;;;;5071896;28;20678;-63
2021/12/29 07:26:09;;;;;;;10.83;3.63;;;8.30;99.90;;;;;;5081175;28;20588;-63
2021/12/29 07:28:38;;;;;;;10.43;3.93;;;8.30;99.90;;;;;;5078594;28;20192;-63
2021/12/29 07:31:07;;;;;;;12.60;3.90;;;8.30;99.90;;;;;;5080376;28;20577;-63
2021/12/29 07:33:35;;;;;;;9.40;3.63;;;8.30;99.90;;;;;;5078600;28;20269;-63
2021/12/29 07:36:04;;;;;;;8.00;4.00;;;8.30;99.90;;;;;;5069205;28;20667;-63
2021/12/29 07:38:33;;;;;;;14.60;4.20;;;8.30;99.90;;;;;;5074447;28;20561;-63
2021/12/29 07:41:03;;;;;;;8.03;3.90;;;8.30;99.90;;;;;;5076649;28;20709;-63
2021/12/29 07:43:31;;;;;;;10.43;4.00;;;8.20;99.90;;;;;;5078870;28;20709;-63
2021/12/29 07:46:00;;;;;;;12.20;3.93;;;8.30;99.90;;;;;;5073891;28;20203;-63
2021/12/29 07:48:30;;;;;;;11.93;3.80;;;8.30;99.90;;;;;;5073700;28;20188;-63
2021/12/29 07:50:59;;;;;;;10.67;3.60;;;8.30;99.90;;;;;;5074512;28;20807;-63
2021/12/29 07:53:28;;;;;;;9.97;3.50;;;8.30;99.90;;;;;;5078356;28;20629;-63
2021/12/29 07:55:57;;;;;;;6.67;3.60;;;8.30;99.90;;;;;;5072232;28;20195;-63
2021/12/29 07:58:26;;;;;;;9.93;3.30;;;8.30;99.90;;;;;;5077134;28;20661;-63
2021/12/29 08:00:56;;;;;;;10.43;3.90;;;8.30;99.90;;;;;;5072172;28;20191;-63
2021/12/29 08:03:24;;;;;;;9.40;3.47;;;8.30;99.90;;;;;;5074111;28;20199;-63
2021/12/29 08:05:52;;;;;;;11.47;3.70;;;8.30;99.90;;;;;;5069854;28;20276;-63
2021/12/29 08:08:21;;;;;;;9.07;3.23;;;8.30;99.90;;;;;;5081831;28;20610;-63
2021/12/29 08:10:49;;;;;;;11.17;3.50;;;8.40;99.90;;;;;;5076816;28;20566;-63
2021/12/29 08:13:18;;;;;;;7.13;3.43;;;8.30;99.90;;;;;;5083380;28;20191;-63
2021/12/29 08:15:48;;;;;;;8.77;3.23;;;8.40;99.90;;;;;;5080036;28;20660;-63
2021/12/29 08:18:16;;;;;;;9.33;3.20;;;8.40;99.90;;;;;;5076647;28;20196;-63
2021/12/29 08:20:45;;;;;;;11.97;4.13;;;8.40;99.90;;;;;;5078635;28;20203;-63
2021/12/29 08:23:13;;;;;;;7.03;3.70;;;8.50;99.90;;;;;;5080022;28;20805;-63
2021/12/29 08:25:42;;;;;;;10.40;3.43;;;8.50;99.90;;;;;;5079844;28;20241;-63
2021/12/29 08:28:10;;;;;;;9.17;3.20;;;8.50;99.90;;;;;;5080715;28;20213;-63
2021/12/29 08:30:39;;;;;;;14.83;3.47;;;8.50;99.90;;;;;;5074440;28;20596;-63
2021/12/29 08:33:09;;;;;;;8.67;3.60;;;8.50;99.90;;;;;;5079754;28;20210;-63
2021/12/29 08:35:38;;;;;;;13.63;3.60;;;8.60;99.90;;;;;;5074035;28;20239;-63
2021/12/29 08:38:06;;;;;;;15.63;3.73;;;8.60;99.90;;;;;;5082329;28;20257;-63
2021/12/29 08:40:35;;;;;;;11.23;3.70;;;8.60;99.90;;;;;;5075087;28;20191;-63
2021/12/29 08:43:03;;;;;;;10.53;3.77;;;8.60;99.90;;;;;;5078389;28;20207;-63
2021/12/29 08:45:34;;;;;;;11.70;5.80;;;8.70;99.90;;;;;;5073494;28;20891;-63
2021/12/29 08:48:03;;;;;;;22.87;10.90;;;8.70;99.90;;;;;;5074783;28;20208;-63
2021/12/29 08:50:33;;;;;;;11.40;3.83;;;8.70;99.90;;;;;;5073413;28;20274;-63
2021/12/29 08:53:05;;;;;;;10.37;4.50;;;8.70;99.90;;;;;;5082681;28;20878;-63
2021/12/29 08:55:34;;;;;;;9.33;4.17;;;8.70;99.90;;;;;;5081517;28;20535;-63
2021/12/29 08:58:06;;;;;;;12.50;3.90;;;8.70;99.90;;;;;;5086174;28;20741;-63
2021/12/29 09:00:35;;;;;;;13.43;6.93;;;8.70;99.90;;;;;;5075694;28;20192;-63
2021/12/29 09:03:06;;;;;;;7.10;3.50;;;8.70;99.90;;;;;;5077770;28;20197;-63
2021/12/29 09:05:36;;;;;;;10.33;5.93;;;8.70;99.90;;;;;;5079475;28;20639;-63
2021/12/29 09:08:06;;;;;;;12.97;4.50;;;8.70;99.90;;;;;;5082278;28;20206;-63
2021/12/29 09:10:34;;;;;;;14.10;7.33;;;8.70;99.90;;;;;;5080272;28;20603;-63
2021/12/29 09:13:03;;;;;;;10.47;3.60;;;8.70;99.90;;;;;;5087814;27;20287;-63
2021/12/29 09:15:32;;;;;;;9.70;4.00;;;8.70;99.90;;;;;;5082327;28;20227;-63
2021/12/29 09:18:01;;;;;;;12.67;3.90;;;8.80;99.90;;;;;;5080877;28;20275;-63
2021/12/29 09:20:32;;;;;;;17.07;7.00;;;8.80;99.90;;;;;;5070123;28;20338;-63
2021/12/29 09:23:04;;;;;;;9.07;4.03;;;8.80;99.90;;;;;;5075804;28;20307;-63
2021/12/29 09:25:37;;;;;;;14.83;5.70;;;8.80;99.90;;;;;;5081270;28;20348;-63
2021/12/29 09:28:06;;;;;;;16.80;5.07;;;8.80;99.90;;;;;;5083854;28;20199;-63
2021/12/29 09:30:36;;;;;;;11.63;3.83;;;8.80;99.90;;;;;;5077701;28;20188;-63
2021/12/29 09:33:07;;;;;;;11.23;4.20;;;8.90;99.90;;;;;;5088210;28;20271;-63
2021/12/29 09:35:36;;;;;;;12.13;4.07;;;8.90;99.90;;;;;;5074121;28;20203;-63
2021/12/29 09:38:06;;;;;;;17.80;4.47;;;8.90;99.90;;;;;;5074876;28;20192;-63
2021/12/29 09:40:35;;;;;;;14.03;4.70;;;8.90;99.90;;;;;;5080623;28;20192;-63
2021/12/29 09:43:06;;;;;;;19.93;5.73;;;8.90;99.90;;;;;;5078822;28;20241;-63
2021/12/29 09:45:35;;;;;;;14.10;5.33;;;8.90;99.90;;;;;;5078261;28;20233;-63
2021/12/29 09:48:04;;;;;;;9.50;4.93;;;8.90;99.90;;;;;;5084295;28;20222;-63
2021/12/29 09:50:33;;;;;;;18.77;5.47;;;8.90;99.90;;;;;;5075745;28;20642;-63
2021/12/29 09:53:02;;;;;;;13.30;5.47;;;9.00;99.90;;;;;;5075556;28;20208;-63
2021/12/29 09:55:32;;;;;;;12.50;5.97;;;9.00;99.90;;;;;;5083318;28;20211;-63
2021/12/29 09:58:03;;;;;;;25.87;6.43;;;9.00;99.90;;;;;;5081478;28;20215;-63
2021/12/29 10:00:34;;;;;;;14.37;6.57;;;9.10;99.90;;;;;;5072311;28;20287;-63
2021/12/29 10:03:05;;;;;;;21.50;7.27;;;9.10;99.90;;;;;;5072511;28;20325;-63
2021/12/29 10:05:35;;;;;;;14.30;6.97;;;9.20;99.90;;;;;;5075918;28;20265;-63
2021/12/29 10:08:08;;;;;;;20.50;6.53;;;9.10;99.90;;;;;;5093554;28;20212;-63
2021/12/29 10:10:40;;;;;;;17.77;7.17;;;9.10;99.90;;;;;;5071055;28;20196;-63
2021/12/29 10:13:10;;;;;;;22.60;8.50;;;9.20;99.90;;;;;;5080206;28;20183;-63
2021/12/29 10:15:41;;;;;;;22.67;7.97;;;9.20;99.90;;;;;;5072964;28;20303;-63
2021/12/29 10:18:12;;;;;;;19.93;8.30;;;9.30;99.90;;;;;;5073009;28;20195;-63
2021/12/29 10:20:49;;;;;;;23.37;8.60;;;9.40;99.90;;;;;;5075048;28;20207;-63
2021/12/29 10:23:21;;;;;;;27.00;10.07;;;9.40;99.90;;;;;;5069365;28;20605;-63
2021/12/29 10:25:51;;;;;;;22.27;8.80;;;9.40;99.90;;;;;;5070435;28;20184;-63
2021/12/29 10:28:22;;;;;;;25.87;10.53;;;9.50;99.90;;;;;;5074636;28;20472;-63
2021/12/29 10:30:59;;;;;;;27.83;10.30;;;9.50;99.90;;;;;;5071611;28;20192;-63
2021/12/29 10:33:34;;;;;;;27.20;9.80;;;9.50;99.90;;;;;;5071998;28;20670;-63
2021/12/29 10:36:18;;;;;;;34.10;12.07;;;9.60;99.90;;;;;;5094122;28;20206;-63
2021/12/29 10:38:49;;;;;;;31.67;11.50;;;9.70;99.90;;;;;;5076715;28;20196;-63
2021/12/29 10:41:19;;;;;;;32.63;12.10;;;9.70;99.90;;;;;;5074854;28;20753;-63
2021/12/29 10:43:53;;;;;;;34.30;11.40;;;9.70;99.90;;;;;;5079158;28;20249;-63
2021/12/29 10:46:23;;;;;;;27.53;8.83;;;9.70;99.90;;;;;;5070678;28;20200;-63
2021/12/29 10:48:54;;;;;;;71.13;35.40;;;9.80;99.90;;;;;;5071630;28;20207;-63
2021/12/29 10:51:29;;;;;;;33.27;10.30;;;9.80;99.90;;;;;;5071702;28;20261;-63
2021/12/29 10:54:06;;;;;;;29.43;13.10;;;9.80;99.90;;;;;;5080638;28;20278;-63
2021/12/29 10:56:38;;;;;;;29.67;9.93;;;9.80;99.90;;;;;;5084399;28;20818;-63
2021/12/29 10:59:15;;;;;;;29.10;10.77;;;9.90;99.90;;;;;;5077549;28;20207;-63
2021/12/29 11:01:44;;;;;;;29.13;8.80;;;9.90;99.90;;;;;;5078627;28;20688;-63
2021/12/29 11:04:16;;;;;;;22.23;6.67;;;9.90;99.90;;;;;;5060911;28;20196;-64
2021/12/29 11:06:51;;;;;;;51.10;24.37;;;10.00;99.90;;;;;;5072751;28;20220;-63
2021/12/29 11:09:26;;;;;;;25.63;9.00;;;10.00;99.90;;;;;;5071315;28;20207;-64
2021/12/29 11:11:56;;;;;;;19.63;5.60;;;10.00;99.90;;;;;;5078231;28;21739;-63
2021/12/29 11:14:27;;;;;;;15.40;5.03;;;10.00;99.90;;;;;;5076924;28;20231;-63
2021/12/29 11:17:06;;;;;;;20.70;5.20;;;10.00;99.90;;;;;;5076101;28;20202;-63
2021/12/29 11:19:36;;;;;;;15.67;4.90;;;10.10;99.90;;;;;;5073610;28;20420;-64
2021/12/29 11:22:12;;;;;;;12.90;5.50;;;10.10;99.90;;;;;;5077176;28;20196;-63
2021/12/29 11:24:43;;;;;;;18.87;6.13;;;10.20;99.90;;;;;;5058715;28;20195;-63
2021/12/29 11:27:16;;;;;;;21.43;5.20;;;10.10;99.90;;;;;;5076501;28;20275;-63
2021/12/29 11:29:53;;;;;;;30.13;11.53;;;10.20;99.90;;;;;;5056917;28;20236;-63
2021/12/29 11:32:29;;;;;;;18.73;5.37;;;10.20;99.90;;;;;;5076312;28;20592;-63
2021/12/29 11:35:03;;;;;;;12.37;4.30;;;10.20;99.90;;;;;;5078504;28;20196;-63
2021/12/29 11:37:32;;;;;;;17.43;4.13;;;10.20;99.90;;;;;;5077889;28;20270;-63
2021/12/29 11:40:01;;;;;;;12.47;3.50;;;10.20;99.90;;;;;;5074317;28;20269;-64
2021/12/29 11:42:31;;;;;;;8.73;3.70;;;10.20;99.90;;;;;;5075761;28;20238;-63
2021/12/29 11:44:59;;;;;;;13.00;3.87;;;10.20;99.90;;;;;;5077547;28;20201;-63
2021/12/29 11:47:30;;;;;;;12.10;4.53;;;10.10;99.90;;;;;;5074862;28;20227;-64
2021/12/29 11:49:58;;;;;;;13.87;5.17;;;10.10;99.90;;;;;;5075555;28;20242;-64
2021/12/29 11:52:47;;;;;;;12.73;4.63;;;10.10;99.90;;;;;;5072594;28;20215;-63
2021/12/29 11:55:19;;;;;;;15.33;4.60;;;10.10;99.90;;;;;;5075395;28;20233;-63
2021/12/29 11:57:50;;;;;;;11.27;4.20;;;10.10;99.90;;;;;;5073688;28;20545;-63
2021/12/29 12:00:21;;;;;;;8.20;3.83;;;10.00;99.90;;;;;;5075719;28;20195;-64
2021/12/29 12:03:14;;;;;;;10.50;3.93;;;10.00;99.90;;;;;;5073005;28;20210;-64
2021/12/29 12:05:47;;;;;;;10.07;3.77;;;10.00;99.90;;;;;;5056031;28;20192;-63
2021/12/29 12:08:22;;;;;;;9.50;3.97;;;10.00;99.90;;;;;;5060863;28;20212;-64
2021/12/29 12:10:52;;;;;;;11.83;4.27;;;9.90;99.90;;;;;;5076929;28;20620;-63
2021/12/29 12:13:27;;;;;;;7.43;4.20;;;9.90;99.90;;;;;;5066872;28;20229;-63
2021/12/29 12:16:06;;;;;;;8.83;4.00;;;9.90;99.90;;;;;;5053659;28;20797;-63
2021/12/29 12:18:45;;;;;;;10.00;4.27;;;9.90;99.90;;;;;;5077537;28;20244;-64
2021/12/29 12:21:28;;;;;;;9.23;4.60;;;9.80;99.90;;;;;;5071236;28;20602;-63
2021/12/29 12:24:10;;;;;;;11.77;4.80;;;9.80;99.90;;;;;;5056095;28;20560;-64
2021/12/29 12:26:53;;;;;;;12.20;6.20;;;9.80;99.90;;;;;;5074936;28;20199;-63
2021/12/29 12:29:24;;;;;;;11.20;5.67;;;9.80;99.90;;;;;;5078595;28;20272;-63
2021/12/29 12:32:09;;;;;;;9.67;5.50;;;9.80;99.90;;;;;;5062328;28;20191;-63
2021/12/29 12:34:52;;;;;;;11.33;5.77;;;9.80;99.90;;;;;;5074041;28;20207;-64
2021/12/29 12:37:23;;;;;;;15.60;9.40;;;9.80;99.90;;;;;;5041572;28;20681;-63
2021/12/29 12:39:57;;;;;;;8.33;5.43;;;9.80;99.90;;;;;;5061705;28;20199;-63
2021/12/29 12:42:29;;;;;;;16.60;7.83;;;9.90;99.90;;;;;;5056426;28;20196;-63
2021/12/29 12:45:15;;;;;;;19.97;12.50;;;9.90;99.90;;;;;;5076461;28;20233;-64
2021/12/29 12:47:44;;;;;;;15.60;8.73;;;9.90;99.90;;;;;;5058291;28;20613;-64
2021/12/29 12:50:24;;;;;;;27.33;21.63;;;9.90;99.90;;;;;;5080988;28;20211;-63
2021/12/29 12:52:55;;;;;;;36.27;26.17;;;9.90;99.90;;;;;;5065780;28;20256;-64
2021/12/29 12:55:25;;;;;;;7.83;5.17;;;10.00;99.90;;;;;;5056164;28;20831;-63
2021/12/29 12:57:53;;;;;;;7.13;5.13;;;10.00;99.90;;;;;;5077947;28;20203;-64
2021/12/29 13:00:26;;;;;;;14.83;5.77;;;10.00;99.90;;;;;;5079288;28;20583;-63
2021/12/29 13:02:57;;;;;;;6.03;4.93;;;10.00;99.90;;;;;;5052524;28;20196;-64
2021/12/29 13:05:27;;;;;;;10.30;5.10;;;10.00;99.90;;;;;;5061879;28;20179;-64
2021/12/29 13:08:05;;;;;;;10.83;5.83;;;10.00;99.90;;;;;;5056603;28;20722;-64
2021/12/29 13:10:38;;;;;;;11.70;5.67;;;10.00;99.90;;;;;;5073632;28;20203;-63
2021/12/29 13:13:11;;;;;;;7.17;5.23;;;10.10;99.90;;;;;;5080509;28;20196;-64